Time;durP1;ratioP1;P1;durP2;ratioP2;P2;SDS_P1;SDS_P2;PMS_P1;PMS_P2;Temp;Humidity;BMP_temperature;BMP_pressure;BME280_temperature;BME280_humidity;BME280_pressure;Samples;Min_cycle;Max_cycle;Signal;HPM_P1;HPM_P2
2022/09/07 00:00:08;;;;;;;10.85;7.07;;;;;;;17.09;100.00;100548.66;5589362;31;33838;-69
2022/09/07 00:03:11;;;;;;;9.05;7.03;;;;;;;17.18;100.00;100544.75;5590205;31;34458;-69
2022/09/07 00:06:19;;;;;;;9.75;7.10;;;;;;;17.15;100.00;100547.84;5590192;31;33966;-68
2022/09/07 00:09:22;;;;;;;10.35;7.87;;;;;;;17.08;100.00;100549.72;5590081;31;34536;-69
2022/09/07 00:12:25;;;;;;;8.10;7.05;;;;;;;17.01;100.00;100546.19;5589471;31;32602;-69
2022/09/07 00:15:28;;;;;;;10.57;7.00;;;;;;;16.99;100.00;100542.06;5590465;31;33900;-69
2022/09/07 00:18:31;;;;;;;11.80;7.45;;;;;;;17.03;100.00;100546.00;5590092;31;33881;-69
2022/09/07 00:21:33;;;;;;;7.87;7.07;;;;;;;16.99;100.00;100539.41;5589969;31;34453;-69
2022/09/07 00:24:36;;;;;;;8.27;7.07;;;;;;;16.95;100.00;100531.75;5590059;31;34147;-69
2022/09/07 00:27:39;;;;;;;12.07;7.40;;;;;;;16.99;100.00;100540.22;5589956;31;33972;-69
2022/09/07 00:30:42;;;;;;;10.88;7.85;;;;;;;16.97;100.00;100525.37;5589068;31;33781;-69
2022/09/07 00:33:47;;;;;;;9.20;7.80;;;;;;;16.98;100.00;100527.03;5589232;31;33365;-69
2022/09/07 00:36:49;;;;;;;9.70;7.57;;;;;;;16.94;100.00;100537.34;5589747;31;34233;-70
2022/09/07 00:39:52;;;;;;;10.23;8.07;;;;;;;16.88;100.00;100530.09;5589881;31;34091;-69
2022/09/07 00:42:55;;;;;;;8.70;7.78;;;;;;;16.80;100.00;100527.59;5590148;31;33992;-69
2022/09/07 00:45:58;;;;;;;9.73;8.02;;;;;;;16.77;100.00;100531.53;5589126;31;34555;-69
2022/09/07 00:49:04;;;;;;;10.50;8.05;;;;;;;16.71;100.00;100526.97;5589748;31;33804;-69
2022/09/07 00:52:08;;;;;;;11.55;8.23;;;;;;;16.69;100.00;100528.22;5589581;31;33768;-69
2022/09/07 00:55:13;;;;;;;9.80;7.60;;;;;;;16.69;100.00;100525.53;5588907;31;33897;-69
2022/09/07 00:58:18;;;;;;;8.60;7.37;;;;;;;16.70;100.00;100528.00;5589636;31;33881;-69
2022/09/07 01:01:21;;;;;;;9.82;7.78;;;;;;;16.61;100.00;100523.88;5588826;31;34141;-69
2022/09/07 01:04:25;;;;;;;11.18;7.85;;;;;;;16.52;100.00;100525.06;5589558;31;34228;-69
2022/09/07 01:07:28;;;;;;;10.18;7.53;;;;;;;16.50;100.00;100524.47;5589868;31;33985;-69
2022/09/07 01:10:34;;;;;;;8.02;7.22;;;;;;;16.53;100.00;100524.03;5589771;31;34632;-69
2022/09/07 01:13:39;;;;;;;8.02;7.22;;;;;;;16.53;100.00;100529.41;5589568;31;34017;-69
2022/09/07 01:16:54;;;;;;;8.30;7.50;;;;;;;16.43;100.00;100527.09;5589468;31;35179;-69
2022/09/07 01:20:12;;;;;;;8.40;7.50;;;;;;;16.44;100.00;100519.91;5589449;31;33871;-69
2022/09/07 01:23:52;;;;;;;10.25;7.32;;;;;;;16.37;100.00;100516.38;5588200;31;32641;-69
2022/09/07 01:27:29;;;;;;;13.52;7.78;;;;;;;16.34;100.00;100522.13;5589481;31;34300;-69
2022/09/07 01:30:36;;;;;;;11.00;8.18;;;;;;;16.33;100.00;100521.31;5589344;31;34537;-69
2022/09/07 01:33:54;;;;;;;9.77;7.53;;;;;;;16.29;100.00;100516.56;5589288;31;33759;-69
2022/09/07 01:37:28;;;;;;;10.35;8.20;;;;;;;16.28;100.00;100517.59;5588341;31;34572;-69
2022/09/07 01:40:56;;;;;;;10.55;8.13;;;;;;;16.27;100.00;100518.59;5589182;31;33872;-69
2022/09/07 01:44:01;;;;;;;8.48;7.65;;;;;;;16.27;100.00;100515.91;5588546;31;33245;-69
2022/09/07 01:47:16;;;;;;;10.27;8.00;;;;;;;16.19;100.00;100514.25;5588540;31;34232;-69
2022/09/07 01:50:43;;;;;;;9.30;8.30;;;;;;;16.19;100.00;100511.59;5589296;31;33941;-69
2022/09/07 01:54:24;;;;;;;11.75;8.45;;;;;;;16.12;100.00;100508.03;5589187;31;34264;-69
2022/09/07 01:57:36;;;;;;;11.07;8.25;;;;;;;16.13;100.00;100503.53;5588923;31;33762;-69
2022/09/07 02:00:45;;;;;;;8.75;7.90;;;;;;;16.17;100.00;100496.78;5588848;31;34030;-69
2022/09/07 02:03:57;;;;;;;9.68;8.65;;;;;;;16.16;100.00;100495.94;5588849;31;34594;-69
2022/09/07 02:07:25;;;;;;;9.32;8.27;;;;;;;16.15;100.00;100498.81;5587941;31;33913;-69
2022/09/07 02:10:37;;;;;;;9.10;8.20;;;;;;;16.14;100.00;100500.66;5588658;31;34562;-69
2022/09/07 02:13:50;;;;;;;10.43;8.45;;;;;;;16.08;100.00;100510.31;5587691;31;34023;-69
2022/09/07 02:17:05;;;;;;;12.93;8.20;;;;;;;16.05;100.00;100501.87;5588821;31;34595;-69
2022/09/07 02:20:13;;;;;;;10.48;8.38;;;;;;;16.10;100.00;100496.75;5587712;31;33826;-69
2022/09/07 02:23:27;;;;;;;9.25;8.10;;;;;;;16.17;100.00;100497.56;5588454;31;34598;-69
2022/09/07 02:26:32;;;;;;;10.85;8.68;;;;;;;16.15;100.00;100496.97;5588714;31;33876;-70
2022/09/07 02:29:34;;;;;;;9.88;8.77;;;;;;;16.12;100.00;100496.53;5588385;31;34385;-69
2022/09/07 02:32:37;;;;;;;9.40;8.40;;;;;;;16.09;100.00;100498.59;5587492;31;34012;-69
2022/09/07 02:35:40;;;;;;;10.63;8.57;;;;;;;16.18;100.00;100483.16;5587482;31;34586;-70
2022/09/07 02:38:43;;;;;;;10.05;8.98;;;;;;;16.18;100.00;100485.84;5587967;31;34227;-69
2022/09/07 02:41:45;;;;;;;11.73;9.23;;;;;;;16.12;100.00;100478.59;5587353;31;33762;-69
2022/09/07 02:44:50;;;;;;;15.18;8.65;;;;;;;16.08;100.00;100483.53;5588089;31;33907;-69
2022/09/07 02:48:05;;;;;;;10.80;8.45;;;;;;;16.08;100.00;100472.84;5587980;31;34187;-69
2022/09/07 02:51:22;;;;;;;9.73;8.68;;;;;;;16.01;100.00;100482.72;5588185;31;34154;-69
2022/09/07 02:54:51;;;;;;;9.25;8.35;;;;;;;15.93;100.00;100476.69;5587784;31;33900;-69
2022/09/07 02:58:18;;;;;;;10.02;8.40;;;;;;;15.84;100.00;100483.25;5588544;31;33990;-69
2022/09/07 03:01:46;;;;;;;15.25;9.57;;;;;;;15.82;100.00;100472.75;5590645;31;33896;-69
2022/09/07 03:05:14;;;;;;;10.73;9.57;;;;;;;15.92;100.00;100475.06;5590636;31;34633;-70
2022/09/07 03:08:28;;;;;;;10.48;9.27;;;;;;;15.95;100.00;100477.31;5590575;31;34442;-69
2022/09/07 03:11:34;;;;;;;12.95;8.93;;;;;;;15.89;100.00;100478.13;5590586;31;33892;-69
2022/09/07 03:14:40;;;;;;;11.27;9.60;;;;;;;15.80;100.00;100472.13;5590912;31;34561;-69
2022/09/07 03:17:44;;;;;;;11.52;8.90;;;;;;;15.75;100.00;100479.91;5590524;31;34376;-69
2022/09/07 03:20:47;;;;;;;13.85;9.30;;;;;;;15.74;100.00;100477.44;5590514;31;34585;-69
2022/09/07 03:23:50;;;;;;;10.38;9.32;;;;;;;15.82;100.00;100475.44;5589744;31;34540;-69
2022/09/07 03:26:53;;;;;;;14.55;9.40;;;;;;;15.79;100.00;100470.47;5590376;31;34514;-69
2022/09/07 03:29:57;;;;;;;14.48;9.70;;;;;;;15.82;100.00;100480.78;5590615;31;34632;-70
2022/09/07 03:33:00;;;;;;;10.18;9.15;;;;;;;15.88;100.00;100469.25;5590313;31;33909;-69
2022/09/07 03:36:02;;;;;;;9.73;8.73;;;;;;;15.93;100.00;100468.66;5590342;31;34538;-69
2022/09/07 03:39:05;;;;;;;12.20;9.15;;;;;;;15.91;100.00;100468.06;5590126;31;33836;-70
2022/09/07 03:42:08;;;;;;;12.45;9.43;;;;;;;15.89;100.00;100484.28;5589579;31;34589;-69
2022/09/07 03:45:11;;;;;;;11.00;9.77;;;;;;;15.82;100.00;100482.62;5590778;31;34575;-69
2022/09/07 03:48:13;;;;;;;9.88;8.88;;;;;;;15.79;100.00;100480.34;5590246;31;34585;-69
2022/09/07 03:51:16;;;;;;;13.20;9.85;;;;;;;15.74;100.00;100485.44;5590405;31;34081;-70
2022/09/07 03:54:19;;;;;;;12.30;9.68;;;;;;;15.80;100.00;100490.84;5590090;31;34141;-70
2022/09/07 03:57:22;;;;;;;12.93;9.82;;;;;;;15.75;100.00;100481.75;5589741;31;33946;-70
2022/09/07 04:00:25;;;;;;;10.85;9.63;;;;;;;15.77;100.00;100482.41;5590132;31;34750;-70
2022/09/07 04:03:28;;;;;;;10.90;9.75;;;;;;;15.77;100.00;100490.44;5590079;31;34186;-70
2022/09/07 04:08:33;;;;;;;;;;;;;;;15.79;100.00;100494.53;5557120;32;275376;-70
2022/09/07 04:11:36;;;;;;;12.20;9.70;;;;;;;15.77;100.00;100496.59;5564321;32;32614;-69
2022/09/07 04:14:39;;;;;;;12.07;10.10;;;;;;;15.78;100.00;100503.59;5564492;32;32931;-70
2022/09/07 04:17:42;;;;;;;10.82;9.35;;;;;;;15.72;100.00;100509.75;5564291;32;34525;-69
2022/09/07 04:20:45;;;;;;;14.60;10.20;;;;;;;15.68;100.00;100513.84;5565319;32;33760;-70
2022/09/07 04:23:48;;;;;;;12.23;9.77;;;;;;;15.77;100.00;100515.34;5564430;32;32363;-69
2022/09/07 04:26:51;;;;;;;11.95;9.35;;;;;;;15.80;100.00;100512.25;5564177;32;33682;-70
2022/09/07 04:29:54;;;;;;;10.95;9.63;;;;;;;15.89;100.00;100512.91;5564761;32;34995;-69
2022/09/07 04:32:56;;;;;;;10.05;9.05;;;;;;;15.83;100.00;100508.37;5564651;32;33725;-69
2022/09/07 04:36:01;;;;;;;10.13;9.07;;;;;;;15.79;100.00;100512.44;5565041;32;34555;-70
2022/09/07 04:39:04;;;;;;;11.82;9.40;;;;;;;15.75;100.00;100500.50;5564522;32;35129;-70
2022/09/07 04:42:07;;;;;;;11.65;9.15;;;;;;;15.79;100.00;100507.09;5564852;32;33837;-70
2022/09/07 04:45:10;;;;;;;12.30;8.90;;;;;;;15.89;100.00;100521.75;5564702;32;33786;-69
2022/09/07 04:48:12;;;;;;;9.82;8.80;;;;;;;15.93;100.00;100520.31;5564656;32;33830;-69
2022/09/07 04:51:16;;;;;;;11.35;8.80;;;;;;;16.01;100.00;100517.50;5564569;32;33926;-70
2022/09/07 04:54:19;;;;;;;12.90;9.15;;;;;;;16.02;100.00;100523.69;5564569;32;34032;-68
2022/09/07 04:57:24;;;;;;;13.60;9.38;;;;;;;16.08;100.00;100526.38;5563668;32;32322;-70
2022/09/07 05:00:27;;;;;;;11.40;8.80;;;;;;;16.11;100.00;100529.69;5564547;32;34196;-69
2022/09/07 05:03:32;;;;;;;12.27;8.32;;;;;;;16.13;100.00;100528.44;5564212;32;33853;-70
2022/09/07 05:06:35;;;;;;;14.38;9.55;;;;;;;16.19;100.00;100524.97;5563528;32;34560;-70
2022/09/07 05:09:37;;;;;;;12.93;8.85;;;;;;;16.25;100.00;100512.63;5563667;32;33923;-69
2022/09/07 05:12:40;;;;;;;9.60;8.60;;;;;;;16.32;100.00;100514.28;5563869;32;33948;-71
2022/09/07 05:15:42;;;;;;;9.85;8.57;;;;;;;16.44;100.00;100523.41;5564164;32;33856;-71
2022/09/07 05:18:54;;;;;;;10.73;8.73;;;;;;;16.60;100.00;100529.44;5556519;32;33810;-70
2022/09/07 05:21:57;;;;;;;9.65;8.65;;;;;;;16.62;100.00;100530.88;5537781;32;32624;-71
2022/09/07 05:25:00;;;;;;;10.30;8.38;;;;;;;16.64;100.00;100539.56;5551520;32;33959;-71
2022/09/07 05:28:03;;;;;;;11.25;7.75;;;;;;;16.79;100.00;100534.84;5551414;32;33911;-71
2022/09/07 05:31:07;;;;;;;9.05;7.95;;;;;;;16.80;100.00;100538.31;5551091;32;33782;-71
2022/09/07 05:34:17;;;;;;;11.25;8.05;;;;;;;16.84;100.00;100537.72;5538225;32;33850;-71
2022/09/07 05:37:35;;;;;;;10.43;7.90;;;;;;;16.88;100.00;100536.28;5551485;32;33972;-71
2022/09/07 05:40:38;;;;;;;9.73;7.50;;;;;;;17.01;100.00;100538.13;5551271;32;33803;-70
2022/09/07 05:43:43;;;;;;;8.10;7.25;;;;;;;17.11;100.00;100532.37;5550088;32;33472;-70
2022/09/07 05:47:06;;;;;;;10.00;8.00;;;;;;;17.16;100.00;100536.09;5550492;32;33869;-70
2022/09/07 05:50:09;;;;;;;9.02;7.22;;;;;;;17.30;100.00;100540.41;5550612;32;33927;-70
2022/09/07 05:53:12;;;;;;;8.63;7.25;;;;;;;17.39;100.00;100547.19;5550807;32;33813;-70
2022/09/07 05:56:15;;;;;;;9.60;6.55;;;;;;;17.49;100.00;100556.69;5550455;32;34501;-70
2022/09/07 05:59:17;;;;;;;8.43;6.85;;;;;;;17.66;100.00;100556.09;5536242;32;32363;-70
2022/09/07 06:02:20;;;;;;;9.38;6.62;;;;;;;17.66;100.00;100561.44;5550300;32;33860;-70
2022/09/07 06:05:23;;;;;;;8.43;6.75;;;;;;;17.70;100.00;100556.47;5550406;32;33936;-69
2022/09/07 06:08:26;;;;;;;8.50;6.82;;;;;;;17.73;100.00;100546.16;5549541;32;33112;-70
2022/09/07 06:11:29;;;;;;;8.88;6.40;;;;;;;17.75;100.00;100548.63;5550540;32;34658;-69
2022/09/07 06:14:32;;;;;;;9.40;6.40;;;;;;;17.88;100.00;100543.22;5549947;32;33811;-71
2022/09/07 06:17:35;;;;;;;9.75;6.70;;;;;;;17.95;100.00;100545.87;5550460;32;34554;-70
2022/09/07 06:20:37;;;;;;;11.27;7.07;;;;;;;18.12;100.00;100555.09;5550264;32;33832;-70
2022/09/07 06:23:42;;;;;;;8.30;6.50;;;;;;;18.26;99.14;100540.59;5549548;32;34562;-70
2022/09/07 06:26:45;;;;;;;9.52;6.10;;;;;;;18.54;98.58;100548.34;5550478;32;33800;-70
2022/09/07 06:29:47;;;;;;;7.30;6.03;;;;;;;18.73;95.39;100550.09;5548499;32;34344;-71
2022/09/07 06:32:50;;;;;;;8.05;6.03;;;;;;;18.77;94.39;100559.34;5550544;32;33879;-70
2022/09/07 06:35:59;;;;;;;7.15;5.82;;;;;;;19.23;91.04;100561.69;5550270;32;33838;-71
2022/09/07 06:39:02;;;;;;;7.32;5.97;;;;;;;19.38;90.88;100550.59;5550767;32;33792;-70
2022/09/07 06:42:05;;;;;;;6.65;5.47;;;;;;;19.36;88.99;100542.75;5550717;32;33904;-70
2022/09/07 06:45:16;;;;;;;12.88;5.70;;;;;;;20.11;85.52;100554.19;5549893;32;33807;-70
2022/09/07 06:48:20;;;;;;;8.30;6.00;;;;;;;20.26;85.20;100553.81;5550026;32;33758;-70
2022/09/07 06:51:26;;;;;;;11.68;4.97;;;;;;;20.38;81.01;100541.25;5549659;32;33755;-70
2022/09/07 06:54:31;;;;;;;7.90;5.07;;;;;;;21.00;77.81;100547.19;5550513;32;34562;-70
2022/09/07 06:57:54;;;;;;;16.05;5.28;;;;;;;21.44;75.02;100543.16;5550240;32;33773;-71
2022/09/07 07:00:57;;;;;;;6.43;5.18;;;;;;;22.77;71.21;100546.50;5549571;32;34279;-70
2022/09/07 07:04:00;;;;;;;9.35;5.82;;;;;;;23.49;67.54;100546.59;5550278;32;35128;-70
2022/09/07 07:07:03;;;;;;;7.05;5.20;;;;;;;23.69;65.47;100544.19;5550010;32;33841;-71
2022/09/07 07:10:06;;;;;;;8.20;5.57;;;;;;;23.25;66.57;100553.22;5550221;32;33875;-71
2022/09/07 07:13:09;;;;;;;7.97;5.72;;;;;;;23.07;66.79;100548.91;5550311;32;35130;-71
2022/09/07 07:16:14;;;;;;;7.15;5.30;;;;;;;23.64;65.53;100554.12;5549404;32;33734;-71
2022/09/07 07:19:16;;;;;;;9.63;5.80;;;;;;;23.95;63.36;100544.53;5549686;32;32485;-71
2022/09/07 07:22:19;;;;;;;7.35;5.07;;;;;;;23.78;64.17;100550.00;5550500;32;33925;-72
2022/09/07 07:25:42;;;;;;;5.93;4.72;;;;;;;23.80;62.58;100545.97;5549948;32;33982;-71
2022/09/07 07:28:48;;;;;;;10.45;4.50;;;;;;;23.39;64.40;100557.25;5550214;32;33882;-71
2022/09/07 07:32:06;;;;;;;7.03;4.43;;;;;;;24.75;60.38;100555.50;5549986;32;34324;-71
2022/09/07 07:35:10;;;;;;;8.23;4.07;;;;;;;24.63;59.77;100554.84;5549254;32;33223;-71
2022/09/07 07:38:13;;;;;;;6.43;4.40;;;;;;;25.49;56.86;100561.84;5549176;32;33073;-71
2022/09/07 07:41:36;;;;;;;10.32;4.28;;;;;;;26.33;54.36;100553.66;5548389;32;32458;-72
2022/09/07 07:44:54;;;;;;;9.32;4.25;;;;;;;26.91;52.97;100558.97;5549081;32;33737;-71
2022/09/07 07:48:17;;;;;;;8.73;3.70;;;;;;;27.66;50.74;100556.19;5550928;32;35039;-72
2022/09/07 07:51:20;;;;;;;9.45;3.78;;;;;;;28.83;47.26;100556.53;5549661;32;33779;-71
2022/09/07 07:54:22;;;;;;;6.03;3.97;;;;;;;29.43;46.43;100553.59;5549779;32;35377;-71
2022/09/07 07:57:25;;;;;;;5.57;3.70;;;;;;;28.79;46.83;100549.19;5536038;32;32497;-71
2022/09/07 08:00:28;;;;;;;5.47;3.70;;;;;;;28.45;47.66;100555.37;5548512;32;32357;-71
2022/09/07 08:03:51;;;;;;;9.60;3.72;;;;;;;29.58;44.37;100543.28;5548843;32;33176;-71
2022/09/07 08:06:54;;;;;;;5.97;3.55;;;;;;;30.80;41.99;100541.75;5549161;32;35030;-72
2022/09/07 08:09:57;;;;;;;7.32;3.60;;;;;;;30.25;43.08;100544.19;5548793;32;33166;-72
2022/09/07 08:12:59;;;;;;;5.62;3.50;;;;;;;28.18;47.86;100537.75;5549161;32;33956;-71
2022/09/07 08:16:04;;;;;;;4.25;3.30;;;;;;;28.21;48.51;100545.41;5549511;32;34644;-71
2022/09/07 08:19:07;;;;;;;8.90;3.40;;;;;;;29.46;45.32;100533.88;5548572;32;33408;-72
2022/09/07 08:22:11;;;;;;;9.00;3.17;;;;;;;29.67;44.61;100540.75;5535627;32;32634;-71
2022/09/07 08:25:13;;;;;;;3.92;2.97;;;;;;;30.03;43.55;100543.91;5549026;32;33815;-71
2022/09/07 08:28:16;;;;;;;5.18;3.35;;;;;;;30.59;43.22;100542.09;5548404;32;33071;-71
2022/09/07 08:31:19;;;;;;;10.18;3.33;;;;;;;31.80;38.78;100541.13;5549055;32;34167;-71
2022/09/07 08:34:22;;;;;;;4.80;3.45;;;;;;;31.99;38.55;100538.28;5535425;32;32607;-71
2022/09/07 08:37:24;;;;;;;5.60;3.20;;;;;;;31.54;39.31;100531.72;5548858;32;34010;-71
2022/09/07 08:40:28;;;;;;;4.65;3.03;;;;;;;31.61;39.14;100526.72;5548435;32;33721;-72
2022/09/07 08:43:59;;;;;;;4.57;3.17;;;;;;;31.27;40.72;100518.81;5549036;32;33783;-71
2022/09/07 08:47:24;;;;;;;3.37;2.70;;;;;;;32.09;37.05;100524.34;5548770;32;33925;-71
2022/09/07 08:50:33;;;;;;;3.40;2.80;;;;;;;32.03;38.35;100522.81;5548226;32;33784;-72
2022/09/07 08:53:44;;;;;;;7.25;2.58;;;;;;;33.92;35.68;100519.53;5548896;32;33771;-72
2022/09/07 08:56:50;;;;;;;5.70;2.75;;;;;;;34.28;33.71;100512.97;5551002;32;34570;-72
2022/09/07 09:00:16;;;;;;;6.00;2.90;;;;;;;34.48;33.83;100515.09;5550642;32;33867;-70
2022/09/07 09:03:27;;;;;;;4.12;2.75;;;;;;;31.56;38.66;100507.56;5537745;32;32248;-71
2022/09/07 09:06:45;;;;;;;11.60;2.87;;;;;;;29.51;43.06;100501.84;5550220;32;34541;-71
2022/09/07 09:10:16;;;;;;;6.12;2.83;;;;;;;28.64;44.95;100497.38;5550188;32;32526;-71
2022/09/07 09:13:35;;;;;;;4.47;3.20;;;;;;;27.61;48.06;100490.78;5551227;32;35074;-68
2022/09/07 09:16:42;;;;;;;7.22;3.47;;;;;;;27.15;49.25;100490.06;5551071;32;33926;-72
2022/09/07 09:19:58;;;;;;;5.35;3.15;;;;;;;26.48;51.61;100489.47;5551311;32;33937;-71
2022/09/07 09:23:11;;;;;;;5.87;3.10;;;;;;;25.81;54.28;100491.13;5537414;32;33857;-70
2022/09/07 09:26:20;;;;;;;7.05;3.72;;;;;;;25.75;54.71;100494.13;5550910;32;35279;-72
2022/09/07 09:29:22;;;;;;;6.80;3.47;;;;;;;25.60;56.04;100496.75;5550251;32;32959;-71
2022/09/07 09:32:38;;;;;;;7.22;3.90;;;;;;;25.48;56.19;100496.91;5550371;32;33978;-71
2022/09/07 09:35:42;;;;;;;5.47;3.80;;;;;;;25.40;55.89;100503.66;5550434;32;34575;-71
2022/09/07 09:38:45;;;;;;;5.70;3.83;;;;;;;25.17;55.67;100490.50;5537387;32;33321;-71
2022/09/07 09:41:48;;;;;;;4.97;3.85;;;;;;;25.56;54.71;100490.22;5551158;32;33749;-71
2022/09/07 09:44:52;;;;;;;6.20;3.70;;;;;;;25.61;55.58;100488.31;5537704;32;32558;-70
2022/09/07 09:47:56;;;;;;;6.07;3.80;;;;;;;25.75;55.35;100486.78;5552045;32;33844;-70
2022/09/07 09:51:01;;;;;;;9.55;3.87;;;;;;;25.77;54.88;100476.44;5537479;32;32478;-71
2022/09/07 09:54:38;;;;;;;6.12;4.15;;;;;;;25.68;54.67;100477.22;5549867;32;33514;-71
2022/09/07 09:57:47;;;;;;;8.07;4.18;;;;;;;25.68;55.49;100469.06;5551517;32;33795;-72
2022/09/07 10:01:23;;;;;;;;;;;;;;;25.69;54.85;100468.00;5551142;32;35239;-72
2022/09/07 10:04:33;;;;;;;5.28;4.18;;;;;;;25.92;54.68;100468.34;5550247;32;32634;-71
2022/09/07 10:07:36;;;;;;;9.88;4.53;;;;;;;26.18;53.71;100465.72;5536566;32;32741;-71
2022/09/07 10:10:55;;;;;;;7.57;4.40;;;;;;;25.86;54.89;100466.69;5536641;32;33588;-71
2022/09/07 10:13:58;;;;;;;4.82;3.83;;;;;;;26.31;53.27;100466.03;5549829;32;35157;-71
2022/09/07 10:17:11;;;;;;;5.50;3.90;;;;;;;26.25;52.68;100463.56;5550005;32;33316;-71
2022/09/07 10:20:14;;;;;;;7.25;4.05;;;;;;;26.51;52.64;100459.81;5536911;32;33121;-71
2022/09/07 10:23:22;;;;;;;6.47;3.92;;;;;;;26.78;52.08;100454.91;5549620;32;34543;-72
2022/09/07 10:26:29;;;;;;;10.90;4.95;;;;;;;26.90;51.22;100457.41;5550450;32;34508;-70
2022/09/07 10:29:36;;;;;;;7.12;4.30;;;;;;;27.09;52.34;100446.75;5550152;32;33813;-69
2022/09/07 10:32:41;;;;;;;5.55;4.10;;;;;;;27.13;49.79;100445.94;5536931;32;32817;-70
2022/09/07 10:35:56;;;;;;;7.60;3.58;;;;;;;27.20;49.02;100446.47;5550403;32;33942;-71
2022/09/07 10:39:03;;;;;;;4.75;4.07;;;;;;;27.63;49.18;100446.91;5536881;32;33840;-70
2022/09/07 10:42:27;;;;;;;6.05;4.07;;;;;;;27.30;49.05;100442.91;5549973;32;33941;-71
2022/09/07 10:45:41;;;;;;;6.70;4.20;;;;;;;27.38;48.96;100438.78;5549798;32;33259;-72
2022/09/07 10:48:47;;;;;;;10.18;4.60;;;;;;;28.40;47.08;100446.25;5549920;32;34539;-71
2022/09/07 10:52:09;;;;;;;5.65;3.70;;;;;;;30.27;43.07;100439.88;5550310;32;35003;-70
2022/09/07 10:55:30;;;;;;;5.72;3.92;;;;;;;33.14;37.03;100444.09;5549727;32;33848;-70
2022/09/07 10:58:42;;;;;;;8.15;3.50;;;;;;;34.41;34.32;100441.22;5549295;32;32539;-70
2022/09/07 11:02:23;;;;;;;7.07;3.53;;;;;;;37.20;29.91;100447.19;5549762;32;35192;-71
2022/09/07 11:05:48;;;;;;;7.87;3.40;;;;;;;37.21;28.58;100440.53;5550678;32;33916;-72
2022/09/07 11:09:04;;;;;;;8.35;3.47;;;;;;;37.58;28.61;100435.81;5550196;32;33365;-72
2022/09/07 11:12:32;;;;;;;7.35;3.70;;;;;;;40.64;24.52;100440.66;5550184;32;35146;-72
2022/09/07 11:15:51;;;;;;;4.80;3.47;;;;;;;39.80;25.80;100435.66;5549776;32;33904;-73
2022/09/07 11:19:02;;;;;;;8.55;3.85;;;;;;;42.34;22.54;100440.59;5550251;32;33852;-72
2022/09/07 11:22:36;;;;;;;6.45;3.58;;;;;;;41.43;22.96;100426.94;5550310;32;34621;-73
2022/09/07 11:25:42;;;;;;;6.90;3.70;;;;;;;43.55;20.72;100435.03;5550649;32;33857;-73
2022/09/07 11:29:00;;;;;;;14.48;3.92;;;;;;;42.69;20.46;100415.12;5550165;32;34577;-73
2022/09/07 11:32:36;;;;;;;6.05;4.15;;;;;;;39.66;24.34;100413.09;5549476;32;32612;-73
2022/09/07 11:35:47;;;;;;;7.03;4.22;;;;;;;40.19;23.03;100414.31;5550002;32;33806;-72
2022/09/07 11:38:59;;;;;;;5.62;4.05;;;;;;;38.40;25.02;100398.34;5549342;32;33255;-72
2022/09/07 11:42:05;;;;;;;9.27;4.40;;;;;;;36.51;27.76;100403.66;5549019;32;32836;-72
2022/09/07 11:45:43;;;;;;;7.28;4.10;;;;;;;36.43;28.79;100402.59;5549915;32;34228;-72
2022/09/07 11:48:56;;;;;;;8.57;3.90;;;;;;;38.57;25.47;100386.16;5549914;32;33862;-70
2022/09/07 11:51:59;;;;;;;6.43;4.45;;;;;;;38.23;26.29;100384.78;5550079;32;33873;-73
2022/09/07 11:55:11;;;;;;;7.75;4.25;;;;;;;36.66;28.53;100382.87;5549204;32;32235;-73
2022/09/07 11:58:32;;;;;;;7.77;4.70;;;;;;;40.24;24.52;100386.22;5550162;32;33890;-73
2022/09/07 12:01:41;;;;;;;8.65;4.97;;;;;;;41.99;21.71;100388.78;5549039;32;32539;-72
2022/09/07 12:05:23;;;;;;;6.18;5.57;;;;;;;39.37;23.07;100378.31;5548852;32;33806;-72
2022/09/07 12:08:49;;;;;;;6.30;5.43;;;;;;;37.37;26.59;100378.63;5549027;32;34296;-69
2022/09/07 12:12:15;;;;;;;8.57;5.45;;;;;;;34.61;30.10;100379.09;5549339;32;35259;-71
2022/09/07 12:15:32;;;;;;;8.05;5.62;;;;;;;36.96;26.46;100378.81;5549565;32;33901;-72
2022/09/07 12:19:00;;;;;;;7.72;5.18;;;;;;;37.35;27.48;100374.56;5548725;32;33285;-72
2022/09/07 12:22:04;;;;;;;9.70;5.78;;;;;;;39.34;23.23;100369.91;5548503;32;32270;-71
2022/09/07 12:25:09;;;;;;;6.03;5.40;;;;;;;38.90;23.88;100364.47;5548619;32;32955;-71
2022/09/07 12:28:23;;;;;;;6.90;5.97;;;;;;;36.74;26.20;100366.22;5549196;32;34643;-70
2022/09/07 12:31:44;;;;;;;7.00;6.30;;;;;;;36.77;27.58;100356.44;5551047;32;32809;-72
2022/09/07 12:35:00;;;;;;;7.87;6.22;;;;;;;37.04;25.91;100347.44;5551046;32;32058;-70
2022/09/07 12:38:28;;;;;;;11.63;6.87;;;;;;;36.79;25.99;100354.94;5551007;32;33189;-71
2022/09/07 12:41:43;;;;;;;7.07;6.37;;;;;;;38.28;24.50;100359.59;5551024;32;32648;-72
2022/09/07 12:45:26;;;;;;;8.35;5.62;;;;;;;37.62;25.02;100357.25;5550819;32;32466;-72
2022/09/07 12:48:45;;;;;;;9.07;6.35;;;;;;;38.49;23.96;100354.66;5550979;32;32715;-71
2022/09/07 12:52:14;;;;;;;7.45;6.30;;;;;;;39.68;23.34;100358.00;5550657;32;32727;-72
2022/09/07 12:55:32;;;;;;;9.05;6.40;;;;;;;40.79;21.46;100353.50;5550641;32;32304;-71
2022/09/07 12:59:17;;;;;;;8.93;5.70;;;;;;;42.49;19.67;100342.75;5551651;32;33959;-70
2022/09/07 13:02:58;;;;;;;7.75;6.28;;;;;;;41.31;20.92;100335.25;5551587;32;34052;-71
2022/09/07 13:06:04;;;;;;;6.93;6.10;;;;;;;38.79;23.70;100332.03;5550240;32;33239;-71
2022/09/07 13:09:22;;;;;;;8.00;6.53;;;;;;;39.83;23.67;100331.38;5550519;32;34337;-70
2022/09/07 13:12:40;;;;;;;12.30;6.82;;;;;;;39.57;23.47;100333.94;5551239;32;33928;-72
2022/09/07 13:16:05;;;;;;;7.55;6.22;;;;;;;40.38;22.76;100330.88;5539565;32;33124;-71
2022/09/07 13:19:35;;;;;;;7.93;6.60;;;;;;;40.14;22.70;100327.59;5550773;32;33808;-70
2022/09/07 13:22:38;;;;;;;8.93;6.37;;;;;;;39.66;23.47;100326.19;5551334;32;35227;-71
2022/09/07 13:25:45;;;;;;;7.55;6.20;;;;;;;38.92;24.27;100314.19;5551148;32;34537;-70
2022/09/07 13:28:56;;;;;;;10.27;6.50;;;;;;;39.91;23.55;100311.69;5550870;32;33854;-71
2022/09/07 13:32:16;;;;;;;8.25;6.45;;;;;;;39.16;24.14;100305.66;5550705;32;34542;-72
2022/09/07 13:35:22;;;;;;;8.68;6.70;;;;;;;38.89;25.05;100301.84;5549966;32;32273;-72
2022/09/07 13:38:26;;;;;;;9.38;6.37;;;;;;;40.66;23.03;100311.16;5550188;32;34126;-71
2022/09/07 13:41:36;;;;;;;11.52;6.12;;;;;;;41.06;22.21;100302.28;5550273;32;34553;-73
2022/09/07 13:44:39;;;;;;;7.82;5.43;;;;;;;42.70;20.30;100300.31;5549766;32;32636;-72
2022/09/07 13:47:55;;;;;;;6.10;5.40;;;;;;;44.18;18.94;100305.13;5551036;32;33827;-73
2022/09/07 13:51:08;;;;;;;6.07;5.47;;;;;;;44.52;18.14;100306.41;5551175;32;34589;-72
2022/09/07 13:54:27;;;;;;;7.68;5.70;;;;;;;44.46;18.87;100308.00;5549731;32;34232;-71
2022/09/07 13:57:48;;;;;;;11.12;6.43;;;;;;;41.38;22.27;100293.59;5550240;32;33852;-71
2022/09/07 14:00:58;;;;;;;10.05;5.50;;;;;;;42.82;20.80;100285.25;5549737;32;34146;-72
2022/09/07 14:04:07;;;;;;;8.90;5.82;;;;;;;41.07;22.04;100280.81;5549869;32;34691;-71
2022/09/07 14:07:15;;;;;;;10.75;5.82;;;;;;;41.28;22.11;100274.75;5549641;32;35230;-71
2022/09/07 14:10:21;;;;;;;7.90;6.00;;;;;;;39.52;23.59;100271.97;5550181;32;34034;-71
2022/09/07 14:13:24;;;;;;;8.27;5.93;;;;;;;39.04;24.40;100280.78;5549578;32;35392;-72
2022/09/07 14:16:27;;;;;;;6.90;5.37;;;;;;;36.91;27.20;100269.22;5536577;32;33390;-71
2022/09/07 14:19:38;;;;;;;10.10;5.60;;;;;;;35.68;28.85;100257.41;5550146;32;34490;-71
2022/09/07 14:22:42;;;;;;;13.35;6.07;;;;;;;33.22;33.48;100260.25;5549211;32;33768;-71
2022/09/07 14:25:45;;;;;;;20.25;6.87;;;;;;;32.45;34.93;100255.25;5550148;32;34020;-70
2022/09/07 14:29:21;;;;;;;13.85;6.65;;;;;;;31.72;37.23;100257.34;5549477;32;33956;-71
2022/09/07 14:32:25;;;;;;;8.88;6.20;;;;;;;31.12;38.67;100262.28;5549524;32;33761;-71
2022/09/07 14:35:37;;;;;;;8.65;6.65;;;;;;;30.89;39.30;100260.53;5550243;32;34811;-71
2022/09/07 14:38:42;;;;;;;9.07;6.50;;;;;;;30.43;39.25;100264.13;5549536;32;32251;-70